Emmagracht — PDYX — position and weather

sailwx.info

Track history (hours):
 
Tides and Currents Weather Stations Pressure Air Temp Water Temp Dewpoint Dewpoint Depression Visibility Wind Speed Wind Dir Waves Ship Positions

Emmagracht

Last reported at 2017-Nov-20 00:28 UTC. Time now 2017-Nov-20 07:53 UTC.
Position N 51°54' E 004°27'.

Length 136 m; beam 19 m; draft 9 m.

Type: Cargo ship. MMSI: 246308000.

Date/timePositionNaut miles runAvg speedWind from/ knotsBaromVisibWave heightAir tempDewpointWater temp
2017-Nov-20 00:28N 51°54' E 004°27'0 0.0
2017-Nov-19 23:58N 51°54' E 004°27'0 0.0
2017-Nov-19 23:28N 51°54' E 004°27'0 0.0
2017-Nov-19 22:58N 51°54' E 004°27'0 0.0
2017-Nov-19 22:28N 51°54' E 004°27'0 0.0
2017-Nov-19 21:58N 51°54' E 004°27'0 0.0
2017-Nov-19 21:28N 51°54' E 004°27'0 0.0
2017-Nov-19 20:58N 51°54' E 004°27'0 0.0
2017-Nov-19 20:28N 51°54' E 004°27'0 0.0
2017-Nov-19 19:58N 51°54' E 004°27'0 0.0
2017-Nov-19 19:28N 51°54' E 004°27'0 0.0
2017-Nov-19 18:58N 51°54' E 004°27'0 0.0
2017-Nov-19 18:28N 51°54' E 004°27'0 0.0
2017-Nov-19 17:58N 51°54' E 004°27'0 0.0
2017-Nov-19 17:28N 51°54' E 004°27'0 0.0
2017-Nov-19 16:58N 51°54' E 004°27'0 0.0
2017-Nov-19 16:28N 51°54' E 004°27'0 0.0
2017-Nov-19 15:58N 51°54' E 004°27'0 0.0
2017-Nov-19 15:30N 51°54' E 004°27'1 2.5
2017-Nov-19 15:01N 51°54' E 004°26'4 7.9
2017-Nov-19 14:31N 51°54' E 004°19'612.8
2017-Nov-19 14:00N 51°57' E 004°10'611.2
2017-Nov-19 13:30N 51°59' E 004°02'612.4
2017-Nov-19 13:01N 51°60' E 003°52'612.4
2017-Nov-19 12:30N 51°58' E 003°43'5610.4
2017-Nov-19 07:05N 51°34' E 002°20'410.5
2017-Nov-19 06:41N 51°31' E 002°16'210.3
2017-Nov-19 06:30N 51°29' E 002°14'510.5
2017-Nov-19 06:00N 51°25' E 002°09'5 9.3
2017-Nov-19 05:31N 51°21' E 002°06'5 9.3
2017-Nov-19 05:00N 51°16' E 002°05'4 9.0
2017-Nov-19 04:30N 51°13' E 002°01'510.2
2017-Nov-19 04:00N 51°10' E 001°54'510.3
2017-Nov-19 03:31N 51°07' E 001°47'510.6
2017-Nov-19 03:01N 51°04' E 001°41'510.6
2017-Nov-19 02:30N 50°60' E 001°35'510.9
2017-Nov-19 02:00N 50°56' E 001°29'611.2
2017-Nov-19 01:28N 50°50' E 001°26'4910.0
2017-Nov-18 20:34N 50°23' E 000°22'210.6
2017-Nov-18 20:23N 50°22' E 000°19'1010.8
2017-Nov-18 19:30N 50°19' E 000°05'611.0
2017-Nov-18 18:55N 50°18' W 000°05'810.8
2017-Nov-18 18:11N 50°16' W 000°17'2210.9
2017-Nov-18 16:12N 50°11' W 000°50'411.4
2017-Nov-18 15:53N 50°10' W 000°55'411.3
2017-Nov-18 15:30N 50°09' W 001°02'511.1
2017-Nov-18 15:00N 50°08' W 001°10'611.2
2017-Nov-18 14:30N 50°06' W 001°19'510.9
2017-Nov-18 14:00N 50°05' W 001°27'510.8
2017-Nov-18 13:30N 50°03' W 001°35'510.7
2017-Nov-18 13:00N 50°02' W 001°43'510.6
2017-Nov-18 12:30N 50°00' W 001°51'510.7
2017-Nov-18 12:00N 49°59' W 001°59'510.6
2017-Nov-18 11:30N 49°57' W 002°07'2510.3
2017-Nov-18 09:07N 49°51' W 002°44'1610.6
2017-Nov-18 07:39N 49°49' W 003°08'311.0
2017-Nov-18 07:22N 49°49' W 003°13'411.1
2017-Nov-18 07:00N 49°49' W 003°19'611.2
2017-Nov-18 06:30N 49°48' W 003°28'1011.3
2017-Nov-18 05:37N 49°47' W 003°43'311.8
2017-Nov-18 05:22N 49°47' W 003°47'711.5
2017-Nov-18 04:48N 49°46' W 003°58'611.7
2017-Nov-18 04:18N 49°45' W 004°07'411.5
2017-Nov-18 03:57N 49°45' W 004°13'511.4
2017-Nov-18 03:29N 49°45' W 004°21'711.4
2017-Nov-18 02:54N 49°44' W 004°31'811.3
2017-Nov-18 02:10N 49°43' W 004°44'811.3
2017-Nov-18 01:29N 49°43' W 004°56'611.4
2017-Nov-18 00:59N 49°42' W 005°05'811.3
2017-Nov-18 00:20N 49°42' W 005°16'5512.6
2017-Nov-17 20:00N 49°37' W 006°40'  
Track history (hours):
 
Tides and Currents Weather Stations Pressure Air Temp Water Temp Dewpoint Dewpoint Depression Visibility Wind Speed Wind Dir Waves Ship Positions

Emmagracht

Last reported at 2017-Nov-20 00:28 UTC. Time now 2017-Nov-20 07:53 UTC.
Position N 51°54' E 004°27'.

Length 136 m; beam 19 m; draft 9 m.

Type: Cargo ship. MMSI: 246308000.

Date/timePositionNaut miles runAvg speedWind from/ knotsBaromVisibWave heightAir tempDewpointWater temp
2017-Nov-20 00:28N 51°54' E 004°27'0 0.0
2017-Nov-19 23:58N 51°54' E 004°27'0 0.0
2017-Nov-19 23:28N 51°54' E 004°27'0 0.0
2017-Nov-19 22:58N 51°54' E 004°27'0 0.0
2017-Nov-19 22:28N 51°54' E 004°27'0 0.0
2017-Nov-19 21:58N 51°54' E 004°27'0 0.0
2017-Nov-19 21:28N 51°54' E 004°27'0 0.0
2017-Nov-19 20:58N 51°54' E 004°27'0 0.0
2017-Nov-19 20:28N 51°54' E 004°27'0 0.0
2017-Nov-19 19:58N 51°54' E 004°27'0 0.0
2017-Nov-19 19:28N 51°54' E 004°27'0 0.0
2017-Nov-19 18:58N 51°54' E 004°27'0 0.0
2017-Nov-19 18:28N 51°54' E 004°27'0 0.0
2017-Nov-19 17:58N 51°54' E 004°27'0 0.0
2017-Nov-19 17:28N 51°54' E 004°27'0 0.0
2017-Nov-19 16:58N 51°54' E 004°27'0 0.0
2017-Nov-19 16:28N 51°54' E 004°27'0 0.0
2017-Nov-19 15:58N 51°54' E 004°27'0 0.0
2017-Nov-19 15:30N 51°54' E 004°27'1 2.5
2017-Nov-19 15:01N 51°54' E 004°26'4 7.9
2017-Nov-19 14:31N 51°54' E 004°19'612.8
2017-Nov-19 14:00N 51°57' E 004°10'611.2
2017-Nov-19 13:30N 51°59' E 004°02'612.4
2017-Nov-19 13:01N 51°60' E 003°52'612.4
2017-Nov-19 12:30N 51°58' E 003°43'5610.4
2017-Nov-19 07:05N 51°34' E 002°20'410.5
2017-Nov-19 06:41N 51°31' E 002°16'210.3
2017-Nov-19 06:30N 51°29' E 002°14'510.5
2017-Nov-19 06:00N 51°25' E 002°09'5 9.3
2017-Nov-19 05:31N 51°21' E 002°06'5 9.3
2017-Nov-19 05:00N 51°16' E 002°05'4 9.0
2017-Nov-19 04:30N 51°13' E 002°01'510.2
2017-Nov-19 04:00N 51°10' E 001°54'510.3
2017-Nov-19 03:31N 51°07' E 001°47'510.6
2017-Nov-19 03:01N 51°04' E 001°41'510.6
2017-Nov-19 02:30N 50°60' E 001°35'510.9
2017-Nov-19 02:00N 50°56' E 001°29'611.2
2017-Nov-19 01:28N 50°50' E 001°26'4910.0
2017-Nov-18 20:34N 50°23' E 000°22'210.6
2017-Nov-18 20:23N 50°22' E 000°19'1010.8
2017-Nov-18 19:30N 50°19' E 000°05'611.0
2017-Nov-18 18:55N 50°18' W 000°05'810.8
2017-Nov-18 18:11N 50°16' W 000°17'2210.9
2017-Nov-18 16:12N 50°11' W 000°50'411.4
2017-Nov-18 15:53N 50°10' W 000°55'411.3
2017-Nov-18 15:30N 50°09' W 001°02'511.1
2017-Nov-18 15:00N 50°08' W 001°10'611.2
2017-Nov-18 14:30N 50°06' W 001°19'510.9
2017-Nov-18 14:00N 50°05' W 001°27'510.8
2017-Nov-18 13:30N 50°03' W 001°35'510.7
2017-Nov-18 13:00N 50°02' W 001°43'510.6
2017-Nov-18 12:30N 50°00' W 001°51'510.7
2017-Nov-18 12:00N 49°59' W 001°59'510.6
2017-Nov-18 11:30N 49°57' W 002°07'2510.3
2017-Nov-18 09:07N 49°51' W 002°44'1610.6
2017-Nov-18 07:39N 49°49' W 003°08'311.0
2017-Nov-18 07:22N 49°49' W 003°13'411.1
2017-Nov-18 07:00N 49°49' W 003°19'611.2
2017-Nov-18 06:30N 49°48' W 003°28'1011.3
2017-Nov-18 05:37N 49°47' W 003°43'311.8
2017-Nov-18 05:22N 49°47' W 003°47'711.5
2017-Nov-18 04:48N 49°46' W 003°58'611.7
2017-Nov-18 04:18N 49°45' W 004°07'411.5
2017-Nov-18 03:57N 49°45' W 004°13'511.4
2017-Nov-18 03:29N 49°45' W 004°21'711.4
2017-Nov-18 02:54N 49°44' W 004°31'811.3
2017-Nov-18 02:10N 49°43' W 004°44'811.3
2017-Nov-18 01:29N 49°43' W 004°56'611.4
2017-Nov-18 00:59N 49°42' W 005°05'811.3
2017-Nov-18 00:20N 49°42' W 005°16'5512.6
2017-Nov-17 20:00N 49°37' W 006°40'  

Dump ship's entire track history